Time;durP1;ratioP1;P1;durP2;ratioP2;P2;SDS_P1;SDS_P2;PMS_P1;PMS_P2;Temp;Humidity;BMP_temperature;BMP_pressure;BME280_temperature;BME280_humidity;BME280_pressure;Samples;Min_cycle;Max_cycle;Signal;HPM_P1;HPM_P2
2022/01/02 00:00:47;;;;;;;17.23;10.70;;;;;;;9.07;95.76;101311.56;4958068;29;20057;-81
2022/01/02 00:03:32;;;;;;;14.95;10.23;;;;;;;9.10;95.88;101310.47;4965174;28;20055;-80
2022/01/02 00:06:13;;;;;;;16.92;10.98;;;;;;;9.11;95.32;101301.69;4964090;28;20052;-81
2022/01/02 00:08:56;;;;;;;15.35;10.13;;;;;;;9.18;95.48;101297.59;4970816;28;20065;-80
2022/01/02 00:11:27;;;;;;;;;;;;;;;9.24;95.32;101297.91;4969349;28;20054;-79
2022/01/02 00:14:30;;;;;;;17.20;10.20;;;;;;;9.27;95.25;101308.09;4970647;28;20285;-80
2022/01/02 00:17:23;;;;;;;16.65;10.60;;;;;;;9.19;95.31;101294.84;4969270;28;20051;-80
2022/01/02 00:23:20;;;;;;;15.13;11.15;;;;;;;9.10;95.46;101273.91;4966766;28;20055;-81
2022/01/02 00:26:05;;;;;;;17.02;11.27;;;;;;;9.09;95.80;101277.47;4961897;28;20059;-81
2022/01/02 00:28:52;;;;;;;15.10;11.20;;;;;;;9.11;95.53;101294.66;4973823;28;20079;-80
2022/01/02 00:34:32;;;;;;;14.13;10.13;;;;;;;9.11;95.76;101317.34;4957290;28;20051;-80
2022/01/02 00:37:07;;;;;;;15.10;10.77;;;;;;;9.13;95.53;101304.97;4960442;28;20051;-81
2022/01/02 00:39:40;;;;;;;15.25;10.07;;;;;;;9.21;95.31;101326.06;4961114;28;20059;-80
2022/01/02 00:42:12;;;;;;;16.58;10.65;;;;;;;9.13;95.64;101315.44;4951701;29;20102;-80
2022/01/02 00:44:49;;;;;;;13.93;10.00;;;;;;;9.10;95.35;101311.28;4950595;29;20134;-81
2022/01/02 00:50:36;;;;;;;14.40;10.20;;;;;;;9.09;94.76;101306.19;4942399;29;20082;-80
2022/01/02 00:53:09;;;;;;;13.93;10.10;;;;;;;9.23;94.29;101338.03;4940603;29;20052;-81
2022/01/02 00:55:39;;;;;;;14.93;10.02;;;;;;;9.21;94.21;101331.28;4953980;29;20055;-83
2022/01/02 00:58:12;;;;;;;13.60;9.88;;;;;;;9.08;94.34;101304.53;4953893;29;20052;-82
2022/01/02 01:00:49;;;;;;;13.63;10.23;;;;;;;9.09;93.93;101298.38;4956087;29;20502;-82
2022/01/02 01:03:25;;;;;;;15.65;9.30;;;;;;;9.11;94.04;101315.56;4950271;29;20086;-81
2022/01/02 01:05:55;;;;;;;13.18;9.20;;;;;;;9.08;93.90;101307.16;4944400;29;20047;-82
2022/01/02 01:08:24;;;;;;;13.50;9.63;;;;;;;9.22;93.55;101319.88;4948359;29;20111;-82
2022/01/02 01:10:52;;;;;;;12.80;9.85;;;;;;;9.15;93.63;101313.50;4947525;29;20055;-82
2022/01/02 01:13:24;;;;;;;13.57;8.85;;;;;;;9.20;93.44;101317.41;4955138;29;20057;-82
2022/01/02 01:15:51;;;;;;;13.63;9.60;;;;;;;9.26;93.07;101310.81;4962374;28;20405;-83
2022/01/02 01:18:22;;;;;;;13.45;9.68;;;;;;;9.37;93.06;101330.81;4962118;29;20514;-79
2022/01/02 01:20:51;;;;;;;11.82;9.50;;;;;;;9.37;92.88;101326.41;4958602;29;20070;-80
2022/01/02 01:23:19;;;;;;;15.95;9.60;;;;;;;9.37;93.15;101323.81;4959168;29;20055;-79
2022/01/02 01:25:48;;;;;;;13.63;10.25;;;;;;;9.28;93.17;101311.53;4959001;29;20094;-80
2022/01/02 01:28:16;;;;;;;13.18;9.20;;;;;;;9.32;93.12;101326.81;4959459;29;20078;-81
2022/01/02 01:30:44;;;;;;;15.30;9.82;;;;;;;9.41;92.86;101327.81;4960943;29;20051;-82
2022/01/02 01:33:10;;;;;;;12.82;9.52;;;;;;;9.39;93.00;101321.88;4964018;29;20078;-82
2022/01/02 01:35:40;;;;;;;12.77;9.32;;;;;;;9.35;93.63;101325.72;4959252;28;20218;-81
2022/01/02 01:38:10;;;;;;;12.90;9.73;;;;;;;9.25;92.58;101288.28;4956655;29;20057;-79
2022/01/02 01:40:41;;;;;;;14.80;9.45;;;;;;;9.27;93.18;101288.97;4959399;29;20401;-82
2022/01/02 01:43:13;;;;;;;12.95;9.90;;;;;;;9.22;93.50;101309.44;4960191;29;20055;-82
2022/01/02 01:45:40;;;;;;;14.63;9.40;;;;;;;9.25;93.69;101315.22;4960734;29;20066;-83
2022/01/02 01:48:15;;;;;;;15.82;10.25;;;;;;;9.22;93.77;101314.66;4960308;29;20118;-82
2022/01/02 01:50:43;;;;;;;14.23;10.48;;;;;;;9.24;93.93;101305.72;4961202;29;20051;-84
2022/01/02 01:53:11;;;;;;;13.57;10.18;;;;;;;9.11;94.06;101292.06;4961286;29;20044;-82
2022/01/02 01:55:40;;;;;;;15.82;9.88;;;;;;;9.26;94.01;101300.38;4961145;29;20469;-83
2022/01/02 01:58:07;;;;;;;15.00;9.95;;;;;;;9.23;93.75;101295.41;4961371;29;20051;-82
2022/01/02 02:00:35;;;;;;;14.30;8.98;;;;;;;9.14;94.09;101280.53;4961692;29;20051;-83
2022/01/02 02:03:03;;;;;;;15.48;9.80;;;;;;;9.27;93.59;101302.03;4961379;29;20055;-83
2022/01/02 02:05:32;;;;;;;15.07;10.35;;;;;;;9.20;93.83;101293.91;4961171;29;20102;-85
2022/01/02 02:08:01;;;;;;;14.23;10.13;;;;;;;9.23;93.76;101293.63;4961467;29;20059;-82
2022/01/02 02:10:35;;;;;;;16.63;10.02;;;;;;;9.24;93.91;101281.41;4961213;29;20055;-83
2022/01/02 02:13:04;;;;;;;14.57;10.15;;;;;;;9.19;93.73;101258.28;4961392;29;20083;-82
2022/01/02 02:15:34;;;;;;;15.93;10.60;;;;;;;9.26;93.89;101261.22;4961037;29;20055;-83
2022/01/02 02:18:01;;;;;;;17.05;11.55;;;;;;;9.30;93.52;101286.09;4963003;29;20059;-81
2022/01/02 02:20:36;;;;;;;17.45;11.07;;;;;;;9.20;94.36;101285.22;4963794;29;20047;-80
2022/01/02 02:23:05;;;;;;;16.13;10.13;;;;;;;9.25;93.85;101302.16;4965647;29;20115;-82
2022/01/02 02:25:34;;;;;;;14.10;10.18;;;;;;;9.21;93.86;101276.44;4964163;29;20056;-82
2022/01/02 02:28:03;;;;;;;15.43;10.07;;;;;;;9.11;94.25;101257.28;4963792;29;20051;-82
2022/01/02 02:30:32;;;;;;;14.00;10.27;;;;;;;9.25;93.97;101280.44;4963715;29;20051;-83
2022/01/02 02:33:04;;;;;;;14.35;10.23;;;;;;;9.26;94.32;101269.03;4963952;29;20055;-82
2022/01/02 02:35:34;;;;;;;17.52;11.32;;;;;;;9.20;93.83;101248.69;4962823;28;20055;-83
2022/01/02 02:38:01;;;;;;;13.45;9.85;;;;;;;9.30;93.57;101265.22;4963177;29;20047;-83
2022/01/02 02:40:30;;;;;;;15.65;10.80;;;;;;;9.31;93.82;101262.47;4963948;29;20102;-83
2022/01/02 02:43:01;;;;;;;14.15;9.43;;;;;;;9.38;93.15;101244.47;4967366;29;20051;-80
2022/01/02 02:48:59;;;;;;;15.38;10.35;;;;;;;9.30;93.12;101210.38;4972721;29;20110;-80
2022/01/02 02:51:29;;;;;;;13.15;10.10;;;;;;;9.38;93.19;101215.75;4962232;29;20047;-83
2022/01/02 02:53:55;;;;;;;14.48;10.70;;;;;;;9.36;93.45;101222.06;4961705;29;20047;-82
2022/01/02 02:56:25;;;;;;;15.00;10.18;;;;;;;9.36;93.13;101214.22;4961613;29;20447;-82
2022/01/02 02:58:55;;;;;;;14.52;10.05;;;;;;;9.38;93.50;101214.94;4960870;29;20075;-82
2022/01/02 03:01:23;;;;;;;17.65;11.20;;;;;;;9.35;93.08;101210.78;4962606;29;20078;-83
2022/01/02 03:03:51;;;;;;;14.85;10.35;;;;;;;9.33;93.31;101212.72;4964902;29;20479;-82
2022/01/02 03:06:22;;;;;;;16.33;10.55;;;;;;;9.28;93.37;101218.34;4963857;29;20133;-83
2022/01/02 03:08:51;;;;;;;16.42;11.55;;;;;;;9.32;93.51;101238.00;4962979;29;20061;-83
2022/01/02 03:11:20;;;;;;;15.65;10.82;;;;;;;9.27;93.72;101229.75;4962330;29;20095;-84
2022/01/02 03:13:50;;;;;;;14.73;11.30;;;;;;;9.29;93.81;101229.59;4962644;29;20557;-82
2022/01/02 03:16:24;;;;;;;14.32;10.35;;;;;;;9.34;93.74;101224.81;4962732;29;20086;-82
2022/01/02 03:18:54;;;;;;;19.20;11.75;;;;;;;9.24;93.92;101218.72;4960658;29;20134;-82
2022/01/02 03:21:21;;;;;;;17.95;11.60;;;;;;;9.21;93.82;101208.56;4961225;29;20051;-83
2022/01/02 03:23:50;;;;;;;17.08;11.82;;;;;;;9.14;93.80;101189.97;4962353;29;20458;-82
2022/01/02 03:26:17;;;;;;;17.77;12.80;;;;;;;9.33;93.94;101215.31;4962129;29;20754;-84
2022/01/02 03:28:44;;;;;;;15.05;10.93;;;;;;;9.25;93.94;101208.16;4961768;28;20083;-83
2022/01/02 03:31:10;;;;;;;16.65;11.88;;;;;;;9.36;93.76;101220.28;4963613;29;20062;-83
2022/01/02 03:33:38;;;;;;;18.25;11.93;;;;;;;9.36;93.71;101214.22;4965512;29;20115;-84
2022/01/02 03:36:06;;;;;;;15.40;11.65;;;;;;;9.31;93.89;101214.63;4963496;29;20450;-80
2022/01/02 03:38:33;;;;;;;16.60;11.48;;;;;;;9.27;94.14;101216.69;4963705;29;20083;-83
2022/01/02 03:41:01;;;;;;;16.52;11.90;;;;;;;9.29;93.99;101216.56;4965307;29;20079;-83
2022/01/02 03:43:30;;;;;;;17.48;11.75;;;;;;;9.25;94.12;101205.53;4965154;29;20092;-83
2022/01/02 03:45:57;;;;;;;16.02;11.05;;;;;;;9.29;94.13;101203.50;4964964;29;20082;-83
2022/01/02 03:48:25;;;;;;;14.55;11.07;;;;;;;9.31;94.43;101209.41;4965262;29;20051;-82
2022/01/02 03:50:53;;;;;;;18.05;12.05;;;;;;;9.31;94.25;101198.97;4965170;29;20051;-82
2022/01/02 03:53:20;;;;;;;15.18;11.55;;;;;;;9.16;94.13;101164.56;4962813;29;20086;-80
2022/01/02 03:55:46;;;;;;;17.30;12.10;;;;;;;9.23;94.24;101164.84;4961926;29;20051;-83
2022/01/02 03:58:14;;;;;;;15.60;12.00;;;;;;;9.23;94.48;101165.69;4963369;29;20090;-80
2022/01/02 04:00:41;;;;;;;23.83;12.95;;;;;;;9.17;94.63;101161.00;4962868;29;20090;-82
2022/01/02 04:03:08;;;;;;;19.70;13.20;;;;;;;9.25;94.57;101168.16;4963756;29;20055;-82
2022/01/02 04:06:08;;;;;;;17.38;11.82;;;;;;;9.16;94.44;101154.13;4964080;29;20047;-82
2022/01/02 04:08:35;;;;;;;18.60;13.65;;;;;;;9.13;94.67;101153.56;4958750;29;20079;-82
2022/01/02 04:11:01;;;;;;;18.63;13.25;;;;;;;9.20;94.57;101155.50;4961466;29;20450;-82
2022/01/02 04:13:30;;;;;;;18.73;13.68;;;;;;;9.10;94.54;101138.97;4961301;29;20141;-83
2022/01/02 04:15:56;;;;;;;18.20;13.40;;;;;;;9.20;94.59;101159.91;4960324;29;20403;-83
2022/01/02 04:18:23;;;;;;;18.52;13.07;;;;;;;9.20;94.38;101159.91;4960219;29;20195;-84
2022/01/02 04:20:50;;;;;;;19.38;13.40;;;;;;;9.13;94.44;101135.28;4959812;29;20513;-84
2022/01/02 04:23:16;;;;;;;18.65;12.85;;;;;;;9.04;95.06;101129.06;4960184;29;20079;-83
2022/01/02 04:25:43;;;;;;;19.17;13.68;;;;;;;9.14;95.23;101134.31;4960417;29;20074;-82
2022/01/02 04:28:21;;;;;;;20.33;13.25;;;;;;;9.18;95.48;101156.59;4961153;29;20051;-81
2022/01/02 04:30:51;;;;;;;18.35;13.27;;;;;;;9.26;94.81;101165.41;4961275;29;20066;-80
2022/01/02 04:33:17;;;;;;;21.60;14.48;;;;;;;9.09;94.99;101163.44;4960289;29;20075;-82
2022/01/02 04:35:44;;;;;;;17.90;14.07;;;;;;;9.07;95.37;101157.53;4960141;28;20062;-83
2022/01/02 04:38:13;;;;;;;18.70;14.15;;;;;;;9.21;95.43;101161.56;4960663;29;20098;-82
2022/01/02 04:40:40;;;;;;;18.38;14.13;;;;;;;9.22;95.56;101171.03;4959607;28;20422;-82
2022/01/02 04:43:08;;;;;;;18.75;13.85;;;;;;;9.27;95.57;101161.00;4959979;29;20050;-82
2022/01/02 04:45:38;;;;;;;21.65;14.80;;;;;;;9.18;95.27;101133.91;4960692;29;20498;-82
2022/01/02 04:48:09;;;;;;;19.77;14.13;;;;;;;9.14;95.69;101140.38;4959836;29;20090;-82
2022/01/02 04:50:38;;;;;;;20.52;14.27;;;;;;;9.14;95.69;101131.72;4961121;29;20051;-83
2022/01/02 04:53:05;;;;;;;21.20;14.52;;;;;;;9.09;95.48;101120.84;4960353;29;20048;-82
2022/01/02 04:55:44;;;;;;;20.63;14.90;;;;;;;9.18;95.78;101127.88;4959715;29;20061;-81
2022/01/02 04:58:10;;;;;;;20.20;14.35;;;;;;;9.10;96.03;101106.81;4958433;29;20095;-79
2022/01/02 05:00:37;;;;;;;20.58;15.43;;;;;;;9.18;96.06;101120.03;4957247;29;20106;-80
2022/01/02 05:03:04;;;;;;;18.58;14.35;;;;;;;9.20;95.99;101115.50;4957127;29;20051;-83
2022/01/02 05:05:33;;;;;;;21.45;13.77;;;;;;;9.24;96.24;101125.56;4957263;29;20130;-81
2022/01/02 05:08:03;;;;;;;19.42;13.18;;;;;;;9.19;96.22;101106.03;4957553;29;20070;-81
2022/01/02 05:10:37;;;;;;;18.67;13.93;;;;;;;9.05;96.02;101088.97;4958299;29;20529;-81
2022/01/02 05:13:04;;;;;;;21.55;13.85;;;;;;;9.19;96.17;101100.81;4957993;29;20053;-82
2022/01/02 05:15:30;;;;;;;20.33;13.98;;;;;;;9.07;96.17;101092.25;4957931;29;20114;-81
2022/01/02 05:17:57;;;;;;;20.83;14.43;;;;;;;9.07;96.32;101081.81;4957918;29;20082;-81
2022/01/02 05:20:26;;;;;;;20.98;14.70;;;;;;;9.16;96.57;101086.22;4957423;29;20455;-80
2022/01/02 05:22:54;;;;;;;20.02;13.90;;;;;;;9.12;96.32;101084.03;4957711;29;20403;-80
2022/01/02 05:25:25;;;;;;;20.33;14.20;;;;;;;9.22;96.24;101090.91;4957186;29;20075;-80
2022/01/02 05:27:54;;;;;;;19.98;14.05;;;;;;;9.14;96.38;101076.88;4957395;29;20059;-80
2022/01/02 05:30:24;;;;;;;21.67;14.45;;;;;;;9.14;96.23;101082.94;4958187;29;20102;-82
2022/01/02 05:32:51;;;;;;;18.23;13.95;;;;;;;9.30;96.65;101098.06;4959411;29;20059;-84
2022/01/02 05:35:17;;;;;;;23.13;14.27;;;;;;;9.19;96.38;101077.31;4986493;23;20043;-80
2022/01/02 05:37:44;;;;;;;22.67;14.95;;;;;;;9.20;96.61;101079.78;5015580;28;20092;-80
2022/01/02 05:40:12;;;;;;;19.55;14.18;;;;;;;9.21;96.99;101078.00;5015071;28;20555;-81
2022/01/02 05:42:38;;;;;;;21.45;14.93;;;;;;;9.21;96.88;101073.59;5015859;28;20073;-81
2022/01/02 05:45:06;;;;;;;22.15;13.82;;;;;;;9.25;96.89;101058.47;5016914;28;20473;-81
2022/01/02 05:47:32;;;;;;;23.80;14.88;;;;;;;9.23;96.77;101060.41;5017338;28;20110;-81
2022/01/02 05:49:59;;;;;;;21.13;14.57;;;;;;;9.21;96.93;101046.66;5017409;28;20101;-81
2022/01/02 05:52:26;;;;;;;22.27;14.77;;;;;;;9.21;96.86;101041.44;5021110;28;20042;-80
2022/01/02 05:54:52;;;;;;;21.30;14.70;;;;;;;9.22;96.95;101035.25;5020743;28;20136;-80
2022/01/02 05:57:20;;;;;;;23.40;14.40;;;;;;;9.23;96.90;101026.47;5020661;28;20484;-80
2022/01/02 05:59:47;;;;;;;21.50;14.48;;;;;;;9.19;97.14;101022.47;5020078;28;20457;-80
2022/01/02 06:02:14;;;;;;;19.63;14.15;;;;;;;9.21;97.27;101021.38;5020371;28;20125;-81
2022/01/02 06:04:40;;;;;;;21.38;15.05;;;;;;;9.24;97.26;101020.28;5020831;28;20089;-81
2022/01/02 06:07:08;;;;;;;20.40;13.75;;;;;;;9.20;97.15;101013.69;5021967;28;20429;-80
2022/01/02 06:09:34;;;;;;;22.40;14.13;;;;;;;9.26;96.90;101021.78;5014731;28;20412;-81
2022/01/02 06:12:01;;;;;;;20.65;13.65;;;;;;;9.27;96.99;101014.78;4999633;28;20137;-80
2022/01/02 06:14:29;;;;;;;20.08;13.80;;;;;;;9.22;96.91;100999.53;5005284;28;20046;-80
2022/01/02 06:16:56;;;;;;;18.92;12.85;;;;;;;9.26;96.97;101020.97;5008467;28;20479;-82
2022/01/02 06:19:22;;;;;;;24.73;13.68;;;;;;;9.25;96.99;101029.75;5005000;28;20050;-82
2022/01/02 06:21:49;;;;;;;20.98;13.18;;;;;;;9.33;96.68;101019.44;4999937;28;20228;-83
2022/01/02 06:24:15;;;;;;;19.50;13.00;;;;;;;9.31;97.12;101016.16;5000772;28;20114;-83
2022/01/02 06:26:42;;;;;;;22.67;13.15;;;;;;;9.29;97.02;101012.84;5000329;28;20051;-83
2022/01/02 06:29:09;;;;;;;18.27;12.43;;;;;;;9.32;96.45;101008.19;5009084;28;20062;-82
2022/01/02 06:31:37;;;;;;;16.35;12.35;;;;;;;9.33;96.46;101014.22;5016306;28;20057;-84
2022/01/02 06:34:03;;;;;;;22.58;13.23;;;;;;;9.28;96.77;100996.38;5009875;28;20085;-82
2022/01/02 06:36:30;;;;;;;20.83;12.38;;;;;;;9.27;96.61;100992.09;5002918;28;20570;-82
2022/01/02 06:38:57;;;;;;;19.02;12.63;;;;;;;9.29;96.39;100984.94;5000625;28;20491;-82
2022/01/02 06:41:23;;;;;;;23.98;12.88;;;;;;;9.32;95.90;100976.84;4999924;28;20070;-82
2022/01/02 06:43:52;;;;;;;17.42;12.38;;;;;;;9.38;96.04;100983.31;4999740;28;20487;-82
2022/01/02 06:46:44;;;;;;;18.90;13.07;;;;;;;9.31;95.93;100974.38;5000546;28;20053;-82
2022/01/02 06:49:19;;;;;;;18.15;12.30;;;;;;;9.26;95.73;100956.50;4997629;28;20137;-83
2022/01/02 06:51:57;;;;;;;17.63;12.10;;;;;;;9.30;95.70;100965.72;4998100;28;20062;-83
2022/01/02 06:54:29;;;;;;;18.05;12.35;;;;;;;9.28;95.71;100943.31;4999155;28;20065;-82
2022/01/02 06:56:56;;;;;;;19.52;12.27;;;;;;;9.37;95.64;100952.91;5005334;28;20054;-83
2022/01/02 06:59:25;;;;;;;19.80;11.50;;;;;;;9.33;95.39;100941.09;5019353;28;20516;-84
2022/01/02 07:01:53;;;;;;;18.10;12.10;;;;;;;9.42;95.34;100949.88;5020440;28;20153;-84
2022/01/02 07:04:23;;;;;;;18.52;13.00;;;;;;;9.45;95.19;100970.50;5018847;28;20124;-83
2022/01/02 07:07:06;;;;;;;21.20;14.88;;;;;;;9.47;95.69;100973.78;5019370;28;20050;-85
2022/01/02 07:09:40;;;;;;;17.13;11.15;;;;;;;9.33;94.74;100933.28;5020687;28;20057;-84
2022/01/02 07:12:11;;;;;;;18.63;11.15;;;;;;;9.41;94.60;100954.28;5020573;28;20559;-84
2022/01/02 07:14:39;;;;;;;19.55;10.85;;;;;;;9.31;94.38;100916.91;5021551;28;20282;-84
2022/01/02 07:17:09;;;;;;;16.92;10.20;;;;;;;9.37;94.32;100908.53;5021700;28;20042;-84
2022/01/02 07:19:40;;;;;;;18.33;10.95;;;;;;;9.39;93.56;100903.97;5023867;28;20046;-84
2022/01/02 07:22:12;;;;;;;13.95;10.02;;;;;;;9.43;93.87;100905.34;5021894;28;20050;-83
2022/01/02 07:24:39;;;;;;;22.10;14.65;;;;;;;9.51;93.71;100920.28;5021107;28;20054;-84
2022/01/02 07:27:15;;;;;;;16.40;9.98;;;;;;;9.52;93.46;100907.09;5023424;28;20050;-84
2022/01/02 07:29:47;;;;;;;14.60;9.93;;;;;;;9.59;93.12;100900.31;5024321;28;20424;-84
2022/01/02 07:32:17;;;;;;;12.43;9.82;;;;;;;9.48;92.98;100870.94;5022802;28;20073;-83
2022/01/02 07:34:54;;;;;;;15.57;10.05;;;;;;;9.60;92.72;100886.28;5029350;28;20074;-83
2022/01/02 07:37:23;;;;;;;14.23;10.13;;;;;;;9.49;92.68;100846.47;5020236;28;20131;-83
2022/01/02 07:39:53;;;;;;;12.80;10.10;;;;;;;9.49;92.93;100852.50;5019844;28;20132;-84
2022/01/02 07:42:31;;;;;;;16.42;9.52;;;;;;;9.44;92.75;100833.03;5019255;28;20103;-84
2022/01/02 07:45:01;;;;;;;14.45;9.40;;;;;;;9.49;92.93;100831.63;5003527;28;20098;-83
2022/01/02 07:47:33;;;;;;;17.35;11.02;;;;;;;9.50;92.95;100832.44;4998190;28;20050;-82
2022/01/02 07:50:10;;;;;;;12.35;9.20;;;;;;;9.57;92.76;100836.94;4995935;28;20050;-82
2022/01/02 07:52:39;;;;;;;15.65;9.85;;;;;;;9.56;93.06;100832.69;4996167;28;20481;-83
2022/01/02 07:55:12;;;;;;;14.23;9.45;;;;;;;9.53;93.19;100821.69;4997624;28;20057;-83
2022/01/02 07:57:41;;;;;;;14.40;9.55;;;;;;;9.50;92.79;100801.09;5004021;28;20438;-83
2022/01/02 08:00:13;;;;;;;14.25;9.77;;;;;;;9.62;92.31;100805.97;5004520;28;20133;-81
2022/01/02 08:02:43;;;;;;;13.93;9.63;;;;;;;9.49;92.36;100778.53;4995973;28;20097;-82
2022/01/02 08:05:16;;;;;;;15.35;9.02;;;;;;;9.63;91.71;100797.19;4995798;28;20054;-81
2022/01/02 08:07:42;;;;;;;;;;;;;;;9.72;91.81;100792.88;5007952;28;20050;-80
2022/01/02 08:14:13;;;;;;;12.23;8.65;;;;;;;9.81;91.10;100765.88;4890056;29;20052;-80
2022/01/02 08:16:42;;;;;;;12.02;8.95;;;;;;;9.72;90.59;100758.09;4975702;28;20054;-80
2022/01/02 08:19:25;;;;;;;13.35;8.93;;;;;;;9.79;90.68;100764.38;5000875;28;20065;-83
2022/01/02 08:22:17;;;;;;;18.38;9.82;;;;;;;9.65;91.03;100748.22;5006679;28;20084;-82
2022/01/02 08:24:46;;;;;;;15.27;8.90;;;;;;;9.72;90.50;100758.91;5005724;28;20185;-81
2022/01/02 08:27:30;;;;;;;13.98;9.30;;;;;;;9.78;90.31;100737.41;5007107;28;20050;-81
2022/01/02 08:30:07;;;;;;;10.98;8.40;;;;;;;9.79;89.53;100722.56;5019509;28;20057;-83
2022/01/02 08:33:10;;;;;;;11.65;8.30;;;;;;;9.88;89.17;100727.72;5021566;28;20152;-81
2022/01/02 08:35:45;;;;;;;11.77;7.88;;;;;;;9.87;88.35;100714.78;5007971;28;20104;-82
2022/01/02 08:38:22;;;;;;;11.55;8.15;;;;;;;9.89;88.00;100731.16;5019260;28;20084;-83
2022/01/02 08:41:05;;;;;;;13.80;8.55;;;;;;;9.93;87.94;100735.91;5020762;28;20054;-83
2022/01/02 08:43:34;;;;;;;14.00;8.43;;;;;;;9.90;88.15;100746.69;5021040;28;20082;-82
2022/01/02 08:46:01;;;;;;;22.27;15.88;;;;;;;9.94;88.46;100755.03;5019257;28;20398;-82
2022/01/02 08:48:28;;;;;;;17.77;12.65;;;;;;;9.88;88.28;100740.78;5013681;28;20081;-82
2022/01/02 08:50:54;;;;;;;12.75;8.88;;;;;;;9.98;88.05;100758.97;5014518;28;20120;-82
2022/01/02 08:59:24;;;;;;;13.18;9.93;;;;;;;10.04;86.95;100761.00;4992502;28;20133;-80
2022/01/02 09:01:54;;;;;;;15.75;10.38;;;;;;;10.04;87.43;100768.84;4999171;28;20057;-81
2022/01/02 09:04:43;;;;;;;16.23;14.23;;;;;;;9.94;87.73;100753.22;4999180;28;20058;-82
2022/01/02 09:07:16;;;;;;;15.30;12.70;;;;;;;10.04;87.88;100768.03;5003576;28;20519;-82
2022/01/02 09:09:56;;;;;;;14.77;9.93;;;;;;;9.97;87.97;100780.88;5009302;28;20092;-80
2022/01/02 09:32:48;;;;;;;7.85;5.70;;;;;;;10.82;80.75;100764.59;5023044;23;20111;-80
2022/01/02 09:36:04;;;;;;;7.70;5.43;;;;;;;10.86;80.43;100755.47;5031781;28;20091;-80
2022/01/02 09:44:56;;;;;;;17.70;8.90;;;;;;;10.92;79.33;100712.94;4952526;29;20082;-81
2022/01/02 09:48:47;;;;;;;29.75;17.73;;;;;;;11.03;79.10;100724.13;5013853;28;20068;-80
2022/01/02 09:51:16;;;;;;;18.17;11.10;;;;;;;11.23;79.00;100741.25;5012725;28;20472;-81
2022/01/02 09:53:44;;;;;;;10.32;5.38;;;;;;;11.29;79.28;100745.84;5016031;28;20085;-81
2022/01/02 09:56:11;;;;;;;8.48;7.57;;;;;;;11.30;78.63;100768.44;5014651;28;20045;-80
2022/01/02 09:58:38;;;;;;;9.05;6.95;;;;;;;11.30;78.59;100766.66;5014149;28;20096;-83
2022/01/02 10:01:07;;;;;;;10.27;8.48;;;;;;;11.34;79.14;100775.03;5015994;28;20054;-79
2022/01/02 10:03:46;;;;;;;9.98;8.25;;;;;;;11.38;78.61;100760.59;5018605;28;20117;-82
2022/01/02 10:06:13;;;;;;;8.80;6.22;;;;;;;11.51;78.36;100775.88;5020745;28;20073;-82
2022/01/02 10:08:40;;;;;;;9.40;5.07;;;;;;;11.45;78.56;100776.50;5018565;28;20133;-83
2022/01/02 10:11:12;;;;;;;7.43;5.53;;;;;;;11.53;78.56;100794.91;5016618;28;20128;-81
2022/01/02 10:13:41;;;;;;;8.03;4.80;;;;;;;11.63;78.12;100791.16;5015390;28;20125;-81
2022/01/02 10:16:23;;;;;;;7.88;4.93;;;;;;;11.54;78.81;100786.88;5014902;28;20092;-80
2022/01/02 10:18:53;;;;;;;7.43;5.20;;;;;;;11.69;76.80;100778.41;5014677;28;20110;-82
2022/01/02 10:21:31;;;;;;;8.60;4.63;;;;;;;11.79;77.02;100750.28;5015526;28;20049;-82
2022/01/02 10:24:16;;;;;;;9.27;5.18;;;;;;;11.89;78.13;100732.59;5016000;28;20488;-85
2022/01/02 10:27:04;;;;;;;6.85;4.70;;;;;;;12.03;77.52;100760.81;5017320;28;20046;-83
2022/01/02 10:29:44;;;;;;;7.55;4.78;;;;;;;12.23;77.10;100751.66;5018016;28;20146;-83
2022/01/02 10:32:29;;;;;;;9.60;5.53;;;;;;;12.56;75.77;100762.94;5017692;28;20129;-82
2022/01/02 10:35:10;;;;;;;8.85;4.68;;;;;;;12.77;74.28;100754.53;5012967;28;20497;-81
2022/01/02 10:37:37;;;;;;;8.57;4.72;;;;;;;12.95;74.44;100744.66;5017213;28;20129;-83
2022/01/02 10:40:05;;;;;;;10.00;5.03;;;;;;;13.14;74.15;100761.03;5020993;28;20054;-83
2022/01/02 10:42:42;;;;;;;8.27;5.18;;;;;;;13.30;73.55;100750.47;5021182;28;20057;-82
2022/01/02 10:45:09;;;;;;;9.07;4.70;;;;;;;13.27;73.04;100740.28;5018530;28;20050;-82
2022/01/02 10:47:36;;;;;;;7.82;5.25;;;;;;;13.21;73.15;100746.25;5020058;28;20113;-82
2022/01/02 10:50:05;;;;;;;10.77;5.10;;;;;;;13.12;73.74;100742.81;5021726;28;20053;-79
2022/01/02 10:52:35;;;;;;;10.95;5.43;;;;;;;13.13;74.17;100754.13;5022782;28;20046;-81
2022/01/02 10:55:06;;;;;;;10.77;5.05;;;;;;;13.02;74.44;100738.72;5022592;28;20077;-82
2022/01/02 10:57:32;;;;;;;8.90;5.25;;;;;;;12.94;75.02;100735.13;5021835;28;20033;-79
2022/01/02 11:00:00;;;;;;;7.45;5.25;;;;;;;13.01;73.89;100732.66;5024243;28;20082;-82
2022/01/02 11:02:32;;;;;;;7.95;4.93;;;;;;;13.00;74.77;100740.69;5027298;28;20077;-81
2022/01/02 11:05:02;;;;;;;13.32;5.22;;;;;;;13.01;75.13;100739.72;5023956;28;20141;-82
2022/01/02 11:07:40;;;;;;;8.07;5.53;;;;;;;13.16;74.51;100740.69;5021868;28;20210;-80
2022/01/02 11:10:09;;;;;;;10.93;5.88;;;;;;;13.14;75.05;100734.75;5019273;28;20053;-81
2022/01/02 11:12:37;;;;;;;10.65;6.00;;;;;;;13.15;75.39;100746.91;5014670;28;20124;-81
2022/01/02 11:15:07;;;;;;;13.55;5.72;;;;;;;13.26;74.73;100743.91;5022116;28;20156;-77
2022/01/02 11:17:35;;;;;;;10.65;5.32;;;;;;;13.36;74.00;100752.41;5023350;28;20042;-80
2022/01/02 11:20:04;;;;;;;13.57;5.72;;;;;;;13.28;74.73;100755.88;5023448;28;20081;-81
2022/01/02 11:22:35;;;;;;;13.30;6.30;;;;;;;13.33;74.36;100750.13;5022782;28;20130;-81
2022/01/02 11:25:08;;;;;;;12.45;5.47;;;;;;;13.34;74.31;100772.78;5022066;28;20143;-80
2022/01/02 11:27:41;;;;;;;9.98;5.63;;;;;;;13.35;74.41;100766.53;5023279;28;20106;-80
2022/01/02 11:30:36;;;;;;;11.25;5.68;;;;;;;13.39;73.58;100767.03;5024344;28;20495;-80
2022/01/02 11:33:03;;;;;;;10.30;5.30;;;;;;;13.40;72.83;100761.59;5023822;28;20060;-81
2022/01/02 11:35:32;;;;;;;10.65;5.22;;;;;;;13.44;72.62;100773.41;5021916;28;20141;-81
2022/01/02 11:38:02;;;;;;;9.18;5.45;;;;;;;13.53;73.03;100766.31;5023356;28;20085;-83
2022/01/02 11:40:45;;;;;;;9.68;5.15;;;;;;;13.49;72.38;100765.00;5023329;28;20077;-81
2022/01/02 11:44:14;;;;;;;13.52;5.90;;;;;;;13.39;72.96;100761.75;5023758;28;20117;-81
2022/01/02 11:46:47;;;;;;;8.32;5.60;;;;;;;13.32;72.44;100758.19;5011508;28;20056;-81
2022/01/02 11:52:34;;;;;;;8.63;5.75;;;;;;;13.16;73.89;100738.88;5029655;28;20076;-81
2022/01/02 12:01:47;;;;;;;9.88;5.55;;;;;;;13.05;74.51;100752.34;5018657;28;20427;-79
2022/01/02 12:04:19;;;;;;;10.77;5.32;;;;;;;12.96;74.44;100738.41;4984916;28;20422;-80
2022/01/02 12:06:46;;;;;;;;;;;;;;;13.00;75.06;100757.28;4978466;28;20057;-81
2022/01/02 12:09:45;;;;;;;10.23;5.30;;;;;;;12.88;74.82;100753.38;4982604;28;19964;-80
2022/01/02 12:12:13;;;;;;;10.70;5.45;;;;;;;12.84;74.94;100763.38;4903375;29;20123;-80
2022/01/02 12:14:53;;;;;;;10.45;5.40;;;;;;;12.79;75.12;100757.81;4901677;29;20076;-81
2022/01/02 12:17:23;;;;;;;13.18;5.53;;;;;;;12.79;75.04;100755.19;4940991;28;20053;-82
2022/01/02 12:20:03;;;;;;;9.25;5.35;;;;;;;12.77;74.86;100749.28;4980064;28;20552;-81
2022/01/02 12:22:46;;;;;;;11.38;5.03;;;;;;;12.71;75.88;100739.47;4976561;28;20050;-81
2022/01/02 12:25:19;;;;;;;8.95;5.97;;;;;;;12.75;75.50;100740.78;4979179;28;20543;-81
2022/01/02 12:27:55;;;;;;;10.88;6.05;;;;;;;12.73;75.14;100748.00;4981634;28;20118;-80
2022/01/02 12:30:22;;;;;;;8.93;5.63;;;;;;;12.74;75.11;100744.38;4979162;28;20497;-80
2022/01/02 12:32:49;;;;;;;9.50;5.60;;;;;;;12.75;75.29;100730.28;4976523;28;20082;-80
2022/01/02 12:35:17;;;;;;;12.13;5.80;;;;;;;12.69;75.77;100730.94;4976150;28;20141;-79
2022/01/02 12:37:44;;;;;;;11.45;6.03;;;;;;;12.78;74.87;100714.16;4975622;28;20054;-82
2022/01/02 12:40:18;;;;;;;14.38;7.15;;;;;;;12.88;74.86;100719.22;4975424;28;20086;-79